Salamis Filoxenia — 5BUY2 — position and weather

sailwx.info

Track history (hours):
 
Tides and Currents Weather Stations Pressure Air Temp Water Temp Dewpoint Dewpoint Depression Visibility Wind Speed Wind Dir Waves Ship Positions

Salamis Filoxenia

Last reported at 2014-Sep-17 13:33 UTC. Time now 2014-Sep-19 01:51 UTC.
Position N 34°39' E 032°30'.

Length 157 m; draft 6.2 m.

Type: Passenger vessel. MMSI: 209167000.

Date/timePositionNaut miles runAvg speedWind from/ knotsBaromVisibWave heightAir tempDewpointWater temp
2014-Sep-17 13:33N 34°39' E 032°30'1515.1
2014-Sep-17 12:33N 34°34' E 032°47'1413.9
2014-Sep-17 11:33N 34°33' E 033°04'6 6.5
2014-Sep-17 10:33N 34°39' E 033°01'0 0.0
2014-Sep-17 09:33N 34°39' E 033°01'0 0.0
2014-Sep-17 08:34N 34°39' E 033°01'0 0.0
2014-Sep-17 07:33N 34°39' E 033°01'0 0.0
2014-Sep-17 06:33N 34°39' E 033°01'0 0.0
2014-Sep-17 05:34N 34°39' E 033°01'0 0.0
2014-Sep-17 04:34N 34°39' E 033°01'1 1.3
2014-Sep-17 03:34N 34°39' E 033°03'1413.8
2014-Sep-17 02:33N 34°28' E 033°13'2 0.1
2014-Sep-15 16:33N 34°27' E 033°15'1413.6
2014-Sep-15 15:32N 34°37' E 033°04'3 3.0
2014-Sep-15 14:33N 34°39' E 033°01'0 0.0
2014-Sep-15 13:33N 34°39' E 033°01'0 0.0
2014-Sep-15 12:32N 34°39' E 033°01'0 0.0
2014-Sep-15 11:33N 34°39' E 033°01'0 0.0
2014-Sep-15 10:33N 34°39' E 033°01'7 7.0
2014-Sep-15 09:33N 34°32' E 033°01'1414.6
2014-Sep-15 08:33N 34°36' E 032°43'29214.6
2014-Sep-14 12:33N 36°41' E 027°20'1413.1
2014-Sep-14 11:29N 36°55' E 027°20'8 0.9
2014-Sep-14 02:33N 36°55' E 027°10'6 1.1
2014-Sep-13 21:17N 36°54' E 027°17'0 0.0
2014-Sep-13 19:23N 36°54' E 027°17'0 0.0
2014-Sep-13 17:32N 36°54' E 027°17'0 0.0
2014-Sep-13 16:33N 36°54' E 027°17'0 0.0
2014-Sep-13 15:32N 36°54' E 027°17'0 0.0
2014-Sep-13 14:30N 36°54' E 027°17'15 4.3
2014-Sep-13 11:07N 36°39' E 027°20'27114.3
2014-Sep-12 16:10N 34°43' E 032°21'914.6
2014-Sep-12 15:33N 34°39' E 032°32'1515.4
2014-Sep-12 14:33N 34°34' E 032°49'1212.0
2014-Sep-12 13:33N 34°37' E 033°03'3 3.0
2014-Sep-12 12:33N 34°39' E 033°01'0 0.0
2014-Sep-12 11:34N 34°39' E 033°01'0 0.0
2014-Sep-12 10:33N 34°39' E 033°01'0 0.0
2014-Sep-12 09:34N 34°39' E 033°01'0 0.0
2014-Sep-12 08:34N 34°39' E 033°01'0 0.0
2014-Sep-12 07:33N 34°39' E 033°01'0 0.0
2014-Sep-12 06:33N 34°39' E 033°01'0 0.0
2014-Sep-12 05:34N 34°39' E 033°01'1 0.8
2014-Sep-12 04:34N 34°39' E 033°02'9 8.5
2014-Sep-12 03:33N 34°32' E 032°56'1414.1
2014-Sep-12 02:33N 34°36' E 032°40'  
2014-Sep-09 05:33N 36°30' E 024°32'1313.3
2014-Sep-09 04:33N 36°30' E 024°49'1313.4
2014-Sep-09 03:33N 36°30' E 025°05'1313.4
2014-Sep-09 02:33N 36°31' E 025°22'1313.4
2014-Sep-09 01:33N 36°30' E 025°39'1313.5
2014-Sep-09 00:33N 36°29' E 025°55'1313.4
2014-Sep-08 23:33N 36°28' E 026°12'1313.0
2014-Sep-08 22:33N 36°28' E 026°28'304 9.8
2014-Sep-07 15:33N 34°43' E 032°19'1413.9
2014-Sep-07 14:34N 34°38' E 032°35'1414.4
2014-Sep-07 13:34N 34°34' E 032°52'  
Track history (hours):
 
Tides and Currents Weather Stations Pressure Air Temp Water Temp Dewpoint Dewpoint Depression Visibility Wind Speed Wind Dir Waves Ship Positions

Salamis Filoxenia

Last reported at 2014-Sep-17 13:33 UTC. Time now 2014-Sep-19 01:51 UTC.
Position N 34°39' E 032°30'.

Length 157 m; draft 6.2 m.

Type: Passenger vessel. MMSI: 209167000.

Date/timePositionNaut miles runAvg speedWind from/ knotsBaromVisibWave heightAir tempDewpointWater temp
2014-Sep-17 13:33N 34°39' E 032°30'1515.1
2014-Sep-17 12:33N 34°34' E 032°47'1413.9
2014-Sep-17 11:33N 34°33' E 033°04'6 6.5
2014-Sep-17 10:33N 34°39' E 033°01'0 0.0
2014-Sep-17 09:33N 34°39' E 033°01'0 0.0
2014-Sep-17 08:34N 34°39' E 033°01'0 0.0
2014-Sep-17 07:33N 34°39' E 033°01'0 0.0
2014-Sep-17 06:33N 34°39' E 033°01'0 0.0
2014-Sep-17 05:34N 34°39' E 033°01'0 0.0
2014-Sep-17 04:34N 34°39' E 033°01'1 1.3
2014-Sep-17 03:34N 34°39' E 033°03'1413.8
2014-Sep-17 02:33N 34°28' E 033°13'2 0.1
2014-Sep-15 16:33N 34°27' E 033°15'1413.6
2014-Sep-15 15:32N 34°37' E 033°04'3 3.0
2014-Sep-15 14:33N 34°39' E 033°01'0 0.0
2014-Sep-15 13:33N 34°39' E 033°01'0 0.0
2014-Sep-15 12:32N 34°39' E 033°01'0 0.0
2014-Sep-15 11:33N 34°39' E 033°01'0 0.0
2014-Sep-15 10:33N 34°39' E 033°01'7 7.0
2014-Sep-15 09:33N 34°32' E 033°01'1414.6
2014-Sep-15 08:33N 34°36' E 032°43'29214.6
2014-Sep-14 12:33N 36°41' E 027°20'1413.1
2014-Sep-14 11:29N 36°55' E 027°20'8 0.9
2014-Sep-14 02:33N 36°55' E 027°10'6 1.1
2014-Sep-13 21:17N 36°54' E 027°17'0 0.0
2014-Sep-13 19:23N 36°54' E 027°17'0 0.0
2014-Sep-13 17:32N 36°54' E 027°17'0 0.0
2014-Sep-13 16:33N 36°54' E 027°17'0 0.0
2014-Sep-13 15:32N 36°54' E 027°17'0 0.0
2014-Sep-13 14:30N 36°54' E 027°17'15 4.3
2014-Sep-13 11:07N 36°39' E 027°20'27114.3
2014-Sep-12 16:10N 34°43' E 032°21'914.6
2014-Sep-12 15:33N 34°39' E 032°32'1515.4
2014-Sep-12 14:33N 34°34' E 032°49'1212.0
2014-Sep-12 13:33N 34°37' E 033°03'3 3.0
2014-Sep-12 12:33N 34°39' E 033°01'0 0.0
2014-Sep-12 11:34N 34°39' E 033°01'0 0.0
2014-Sep-12 10:33N 34°39' E 033°01'0 0.0
2014-Sep-12 09:34N 34°39' E 033°01'0 0.0
2014-Sep-12 08:34N 34°39' E 033°01'0 0.0
2014-Sep-12 07:33N 34°39' E 033°01'0 0.0
2014-Sep-12 06:33N 34°39' E 033°01'0 0.0
2014-Sep-12 05:34N 34°39' E 033°01'1 0.8
2014-Sep-12 04:34N 34°39' E 033°02'9 8.5
2014-Sep-12 03:33N 34°32' E 032°56'1414.1
2014-Sep-12 02:33N 34°36' E 032°40'  
2014-Sep-09 05:33N 36°30' E 024°32'1313.3
2014-Sep-09 04:33N 36°30' E 024°49'1313.4
2014-Sep-09 03:33N 36°30' E 025°05'1313.4
2014-Sep-09 02:33N 36°31' E 025°22'1313.4
2014-Sep-09 01:33N 36°30' E 025°39'1313.5
2014-Sep-09 00:33N 36°29' E 025°55'1313.4
2014-Sep-08 23:33N 36°28' E 026°12'1313.0
2014-Sep-08 22:33N 36°28' E 026°28'304 9.8
2014-Sep-07 15:33N 34°43' E 032°19'1413.9
2014-Sep-07 14:34N 34°38' E 032°35'1414.4
2014-Sep-07 13:34N 34°34' E 032°52'  

Dump ship's entire track history